Aviation Digital Data Service (ADDS)

Output produced by METARs form (1547 UTC 23 August 2017)
found at http://aviationweather.gov/adds/metars/
 
KPHL 231503Z 2315/2418 34009KT P6SM FEW045 BKN250 
     FM232100 33006KT P6SM SKC 
     FM241400 01006KT P6SM FEW250